Time;durP1;ratioP1;P1;durP2;ratioP2;P2;SDS_P1;SDS_P2;PMS_P1;PMS_P2;Temp;Humidity;BMP_temperature;BMP_pressure;BME280_temperature;BME280_humidity;BME280_pressure;Samples;Min_cycle;Max_cycle;Signal;HPM_P1;HPM_P2
2022/08/25 00:01:31;;;;;;;;;;;21.30;99.90;;;;;;5034063;28;20063;-82
2022/08/25 00:03:58;;;;;;;;;;;21.30;99.90;;;;;;5013177;28;19928;-82
2022/08/25 00:06:26;;;;;;;;;;;21.20;99.90;;;;;;5015695;28;20309;-82
2022/08/25 00:08:52;;;;;;;;;;;21.30;99.90;;;;;;5032751;28;19931;-82
2022/08/25 00:11:22;;;;;;;;;;;21.30;99.90;;;;;;5032213;28;20411;-82
2022/08/25 00:13:49;;;;;;;;;;;21.20;99.90;;;;;;5033410;28;19967;-82
2022/08/25 00:16:19;;;;;;;;;;;21.20;99.90;;;;;;5016024;28;19967;-83
2022/08/25 00:18:47;;;;;;;;;;;21.20;99.90;;;;;;5014995;28;19921;-82
2022/08/25 00:21:13;;;;;;;;;;;21.20;99.90;;;;;;5033690;28;19925;-82
2022/08/25 00:23:38;;;;;;;;;;;21.20;99.90;;;;;;5032360;28;19924;-82
2022/08/25 00:26:04;;;;;;;;;;;21.10;99.90;;;;;;5015684;28;20004;-82
2022/08/25 00:28:30;;;;;;;;;;;21.10;99.90;;;;;;5033026;28;20361;-82
2022/08/25 00:30:57;;;;;;;;;;;21.10;99.90;;;;;;5015301;28;19976;-82
2022/08/25 00:33:25;;;;;;;;;;;21.10;99.90;;;;;;5033184;28;19924;-82
2022/08/25 00:35:51;;;;;;;;;;;21.10;99.90;;;;;;5033605;28;19921;-82
2022/08/25 00:38:16;;;;;;;;;;;21.10;99.90;;;;;;5014738;28;19921;-82
2022/08/25 00:40:42;;;;;;;;;;;21.10;99.90;;;;;;5015049;28;20052;-82
2022/08/25 00:43:08;;;;;;;;;;;21.10;99.90;;;;;;5032950;28;19983;-81
2022/08/25 00:45:34;;;;;;;;;;;21.00;99.90;;;;;;5032274;28;19968;-81
2022/08/25 00:48:00;;;;;;;;;;;21.00;99.90;;;;;;5033679;28;19928;-82
2022/08/25 00:50:26;;;;;;;;;;;21.00;99.90;;;;;;5015772;28;19921;-81
2022/08/25 00:52:54;;;;;;;;;;;21.00;99.90;;;;;;5015110;28;19925;-82
2022/08/25 00:55:22;;;;;;;;;;;20.90;99.90;;;;;;5039308;28;19921;-81
2022/08/25 00:57:56;;;;;;;;;;;20.90;99.90;;;;;;5044009;28;19960;-83
2022/08/25 01:00:27;;;;;;;;;;;20.90;99.90;;;;;;5014368;28;20008;-82
2022/08/25 01:02:53;;;;;;;;;;;20.90;99.90;;;;;;5015574;28;19925;-82
2022/08/25 01:05:19;;;;;;;;;;;20.90;99.90;;;;;;5014902;28;19928;-82
2022/08/25 01:07:45;;;;;;;;;;;20.90;99.90;;;;;;5014664;28;19944;-82
2022/08/25 01:10:12;;;;;;;;;;;20.90;99.90;;;;;;5031777;28;20373;-83
2022/08/25 01:12:38;;;;;;;;;;;20.90;99.90;;;;;;5014509;28;20014;-82
2022/08/25 01:15:04;;;;;;;;;;;20.90;99.90;;;;;;5014288;28;19983;-83
2022/08/25 01:17:53;;;;;;;;;;;20.90;99.90;;;;;;5032315;28;19921;-83
2022/08/25 01:20:24;;;;;;;;;;;20.80;99.90;;;;;;4995978;28;19959;-82
2022/08/25 01:22:50;;;;;;;;;;;20.80;99.90;;;;;;5036912;28;20010;-82
2022/08/25 01:25:36;;;;;;;;;;;20.80;99.90;;;;;;5035680;28;19921;-83
2022/08/25 01:28:01;;;;;;;;;;;20.70;99.90;;;;;;5017769;28;19921;-83
2022/08/25 01:30:27;;;;;;;;;;;20.70;99.90;;;;;;5036416;28;19924;-83
2022/08/25 01:33:01;;;;;;;;;;;20.70;99.90;;;;;;5022818;28;19921;-82
2022/08/25 01:35:26;;;;;;;;;;;20.70;99.90;;;;;;5035518;28;19976;-82
2022/08/25 01:37:52;;;;;;;;;;;20.70;99.90;;;;;;5018815;28;19925;-83
2022/08/25 01:40:18;;;;;;;;;;;20.70;99.90;;;;;;5035470;28;19960;-83
2022/08/25 01:43:01;;;;;;;;;;;20.70;99.90;;;;;;5035235;28;20440;-82
2022/08/25 01:45:27;;;;;;;;;;;20.70;99.90;;;;;;5036231;28;20011;-83
2022/08/25 01:47:53;;;;;;;;;;;20.60;99.90;;;;;;5036100;28;20023;-82
2022/08/25 01:50:18;;;;;;;;;;;20.60;99.90;;;;;;5036035;28;20283;-82
2022/08/25 01:52:46;;;;;;;;;;;20.60;99.90;;;;;;5036352;28;20428;-83
2022/08/25 01:55:11;;;;;;;;;;;20.60;99.90;;;;;;5034363;28;19917;-83
2022/08/25 01:57:37;;;;;;;;;;;20.60;99.90;;;;;;5017956;28;20011;-82
2022/08/25 02:00:06;;;;;;;;;;;20.60;99.90;;;;;;5036216;28;20359;-82
2022/08/25 02:02:31;;;;;;;;;;;20.60;99.90;;;;;;5035223;28;20368;-82
2022/08/25 02:04:57;;;;;;;;;;;20.50;99.90;;;;;;5018498;28;20008;-82
2022/08/25 02:07:25;;;;;;;;;;;20.60;99.90;;;;;;5035898;28;19964;-82
2022/08/25 02:09:51;;;;;;;;;;;20.60;99.90;;;;;;5016703;28;19979;-83
2022/08/25 02:12:16;;;;;;;;;;;20.50;99.90;;;;;;5017945;28;20012;-83
2022/08/25 02:14:42;;;;;;;;;;;20.50;99.90;;;;;;5018225;28;20006;-83
2022/08/25 02:17:08;;;;;;;;;;;20.50;99.90;;;;;;5036006;28;19921;-83
2022/08/25 02:19:34;;;;;;;;;;;20.50;99.90;;;;;;5036901;28;19995;-83
2022/08/25 02:22:00;;;;;;;;;;;20.50;99.90;;;;;;5019555;28;20284;-83
2022/08/25 02:24:25;;;;;;;;;;;20.50;99.90;;;;;;5035210;28;20423;-82
2022/08/25 02:26:51;;;;;;;;;;;20.50;99.90;;;;;;5036290;28;20365;-80
2022/08/25 02:29:17;;;;;;;;;;;20.40;99.90;;;;;;5053029;28;19921;-79
2022/08/25 02:31:45;;;;;;;;;;;20.40;99.90;;;;;;5017337;28;19980;-82
2022/08/25 02:34:11;;;;;;;;;;;20.50;99.90;;;;;;5035323;28;19921;-82
2022/08/25 02:36:37;;;;;;;;;;;20.40;99.90;;;;;;5035019;28;20284;-82
2022/08/25 02:39:04;;;;;;;;;;;20.40;99.90;;;;;;5016373;28;19921;-82
2022/08/25 02:41:30;;;;;;;;;;;20.40;99.90;;;;;;5016654;28;19917;-82
2022/08/25 02:43:55;;;;;;;;;;;20.40;99.90;;;;;;5017516;28;19928;-82
2022/08/25 02:46:22;;;;;;;;;;;20.40;99.90;;;;;;5034400;28;19929;-83
2022/08/25 02:48:47;;;;;;;;;;;20.30;99.90;;;;;;5035254;28;19921;-81
2022/08/25 02:51:13;;;;;;;;;;;20.30;99.90;;;;;;5034157;28;19939;-82
2022/08/25 02:53:40;;;;;;;;;;;20.30;99.90;;;;;;5016710;28;19971;-82
2022/08/25 02:56:08;;;;;;;;;;;20.30;99.90;;;;;;5034880;28;19921;-83
2022/08/25 02:58:34;;;;;;;;;;;20.10;99.90;;;;;;5015707;28;19935;-82
2022/08/25 03:01:00;;;;;;;;;;;20.20;99.90;;;;;;5034880;28;19921;-82
2022/08/25 03:03:25;;;;;;;;;;;20.20;99.90;;;;;;5016843;28;19921;-83
2022/08/25 03:05:55;;;;;;;;;;;20.10;99.90;;;;;;5034086;28;20003;-82
2022/08/25 03:08:24;;;;;;;;;;;20.20;99.90;;;;;;5016816;28;20012;-81
2022/08/25 03:10:49;;;;;;;;;;;20.10;99.90;;;;;;5034310;28;19925;-83
2022/08/25 03:13:15;;;;;;;;;;;20.10;99.90;;;;;;5015934;28;19974;-83
2022/08/25 03:15:41;;;;;;;;;;;20.10;99.90;;;;;;5037823;28;20012;-83
2022/08/25 03:18:07;;;;;;;;;;;20.00;99.90;;;;;;5017282;28;20039;-83
2022/08/25 03:20:34;;;;;;;;;;;20.00;99.90;;;;;;5016259;28;19921;-82
2022/08/25 03:23:01;;;;;;;;;;;20.00;99.90;;;;;;5034849;28;19961;-82
2022/08/25 03:28:12;;;;;;;;;;;19.90;99.90;;;;;;5033219;28;20373;-82
2022/08/25 03:30:37;;;;;;;;;;;19.90;99.90;;;;;;5034202;28;19928;-83
2022/08/25 03:33:03;;;;;;;;;;;19.90;99.90;;;;;;5016564;28;19928;-82
2022/08/25 03:35:28;;;;;;;;;;;19.90;99.90;;;;;;5015551;28;19950;-83
2022/08/25 03:37:55;;;;;;;;;;;19.90;99.90;;;;;;5016532;28;20049;-83
2022/08/25 03:40:22;;;;;;;;;;;19.80;99.90;;;;;;5015954;28;20350;-82
2022/08/25 03:42:48;;;;;;;;;;;19.80;99.90;;;;;;5015215;28;19921;-82
2022/08/25 03:45:15;;;;;;;;;;;19.80;99.90;;;;;;5016012;28;19921;-82
2022/08/25 03:47:41;;;;;;;;;;;19.80;99.90;;;;;;5033391;28;19928;-82
2022/08/25 03:50:07;;;;;;;;;;;19.80;99.90;;;;;;5034116;28;20008;-83
2022/08/25 03:52:33;;;;;;;;;;;19.80;99.90;;;;;;5033787;28;19920;-82
2022/08/25 03:54:59;;;;;;;;;;;19.80;99.90;;;;;;5014954;28;19944;-83
2022/08/25 03:57:25;;;;;;;;;;;19.70;99.90;;;;;;5033679;28;19921;-82
2022/08/25 03:59:51;;;;;;;;;;;19.70;99.90;;;;;;5034128;28;19932;-82
2022/08/25 04:02:17;;;;;;;;;;;;;;;;;;5053083;28;19976;-81
2022/08/25 04:04:43;;;;;;;;;;;;;;;;;;5034559;28;19976;-82
2022/08/25 04:07:09;;;;;;;;;;;;;;;;;;5016123;28;19921;-83
2022/08/25 04:09:35;;;;;;;;;;;;;;;;;;5015003;28;20292;-83
2022/08/25 04:12:00;;;;;;;;;;;;;;;;;;5015402;28;20361;-83
2022/08/25 04:14:26;;;;;;;;;;;;;;;;;;5033553;28;19928;-83
2022/08/25 04:16:52;;;;;;;;;;;;;;;;;;5032686;28;19932;-83
2022/08/25 04:19:19;;;;;;;;;;;;;;;;;;5033400;28;19920;-82
2022/08/25 04:21:45;;;;;;;;;;;;;;;;;;5015698;28;20372;-83
2022/08/25 04:24:13;;;;;;;;;;;;;;;;;;5032264;28;19920;-83
2022/08/25 04:26:41;;;;;;;;;;;;;;;;;;5014827;28;19928;-82
2022/08/25 04:29:08;;;;;;;;;;;;;;;;;;5000583;28;19965;-83
2022/08/25 04:31:34;;;;;;;;;;;;;;;;;;4992057;28;19928;-84
2022/08/25 04:34:00;;;;;;;;;;;;;;;;;;4994042;28;20020;-83
2022/08/25 04:36:26;;;;;;;;;;;;;;;;;;4992063;28;19976;-83
2022/08/25 04:38:52;;;;;;;;;;;;;;;;;;4993070;28;20003;-83
2022/08/25 04:41:18;;;;;;;;;;;;;;;;;;4993327;28;19921;-83
2022/08/25 04:43:44;;;;;;;;;;;;;;;;;;4992537;28;19929;-83
2022/08/25 04:46:11;;;;;;;;;;;;;;;;;;4992406;28;19968;-83
2022/08/25 04:48:38;;;;;;;;;;;;;;;;;;4993760;28;19924;-83
2022/08/25 04:51:04;;;;;;;;;;;;;;;;;;4993040;28;19983;-83
2022/08/25 04:53:30;;;;;;;;;;;;;;;;;;4992166;28;19925;-83
2022/08/25 04:55:56;;;;;;;;;;;;;;;;;;4993144;28;19922;-83
2022/08/25 04:58:22;;;;;;;;;;;;;;;;;;4998226;28;19925;-81
2022/08/25 05:00:48;;;;;;;;;;;;;;;;;;4993693;28;19929;-82
2022/08/25 05:03:14;;;;;;;;;;;;;;;;;;4992418;28;20053;-82
2022/08/25 05:05:40;;;;;;;;;;;;;;;;;;4992763;28;20000;-82
2022/08/25 05:08:06;;;;;;;;;;;;;;;;;;4992747;28;19944;-83
2022/08/25 05:10:32;;;;;;;;;;;;;;;;;;4992729;28;19922;-83
2022/08/25 05:13:00;;;;;;;;;;;;;;;;;;4992607;28;19922;-82
2022/08/25 05:18:11;;;;;;;;;;;;;;;;;;4997517;28;19922;-81
2022/08/25 05:20:37;;;;;;;;;;;;;;;;;;5006750;28;19965;-82
2022/08/25 05:23:03;;;;;;;;;;;;;;;;;;5009908;28;19944;-82
2022/08/25 05:25:29;;;;;;;;;;;;;;;;;;5008202;28;19925;-82
2022/08/25 05:27:55;;;;;;;;;;;;;;;;;;4997885;28;19945;-82
2022/08/25 05:30:21;;;;;;;;;;;;;;;;;;5017429;28;19980;-83
2022/08/25 05:32:47;;;;;;;;;;;;;;;;;;5017258;28;19928;-82
2022/08/25 05:35:14;;;;;;;;;;;;;;;;;;5033150;28;19921;-83
2022/08/25 05:37:40;;;;;;;;;;;;;;;;;;5020344;28;19927;-83
2022/08/25 05:40:07;;;;;;;;;;;;;;;;;;5013683;28;20040;-83
2022/08/25 05:42:33;;;;;;;;;;;;;;;;;;5014894;28;19929;-84
2022/08/25 05:44:58;;;;;;;;;;;;;;;;;;5015005;28;19928;-82
2022/08/25 05:47:24;;;;;;;;;;;;;;;;;;5031681;28;19968;-82
2022/08/25 05:49:50;;;;;;;;;;;;;;;;;;5032519;28;19921;-82
2022/08/25 05:52:16;;;;;;;;;;;;;;;;;;5014781;28;19921;-82
2022/08/25 05:54:42;;;;;;;;;;;;;;;;;;5013054;28;19925;-82
2022/08/25 05:57:08;;;;;;;;;;;;;;;;;;5031722;28;19929;-83
2022/08/25 05:59:34;;;;;;;;;;;;;;;;;;5014681;28;20059;-82
2022/08/25 06:04:44;;;;;;;;;;;;;;;;;;5032239;28;20281;-82
2022/08/25 06:07:10;;;;;;;;;;;;;;;;;;5016308;28;19928;-83
2022/08/25 06:09:36;;;;;;;;;;;;;;;;;;5016955;28;19921;-82
2022/08/25 06:12:02;;;;;;;;;;;;;;;;;;5017578;28;20292;-82
2022/08/25 06:14:28;;;;;;;;;;;;;;;;;;5035771;28;20435;-83
2022/08/25 06:16:55;;;;;;;;;;;;;;;;;;5035060;28;19928;-82
2022/08/25 06:19:27;;;;;;;;;;;;;;;;;;5018402;28;19924;-83
2022/08/25 06:21:54;;;;;;;;;;;;;;;;;;5018074;28;20348;-83
2022/08/25 06:24:20;;;;;;;;;;;;;;;;;;5016823;28;19925;-82
2022/08/25 06:26:45;;;;;;;;;;;;;;;;;;5034988;28;19925;-81
2022/08/25 06:29:12;;;;;;;;;;;;;;;;;;5035466;28;19921;-82
2022/08/25 06:31:38;;;;;;;;;;;;;;;;;;5017737;28;19944;-82
2022/08/25 06:34:05;;;;;;;;;;;;;;;;;;5017905;28;20357;-82
2022/08/25 06:36:30;;;;;;;;;;;;;;;;;;5016859;28;19921;-82
2022/08/25 06:38:56;;;;;;;;;;;;;;;;;;5035263;28;19944;-81
2022/08/25 06:41:24;;;;;;;;;;;;;;;;;;5039383;28;19925;-81
2022/08/25 06:43:50;;;;;;;;;;;;;;;;;;5034789;28;19927;-82
2022/08/25 06:46:15;;;;;;;;;;;;;;;;;;5017752;28;19920;-82
2022/08/25 06:48:41;;;;;;;;;;;;;;;;;;5017698;28;19921;-83
2022/08/25 06:51:07;;;;;;;;;;;;;;;;;;5034348;28;20005;-83
2022/08/25 06:53:33;;;;;;;;;;;;;;;;;;5034847;28;19925;-83
2022/08/25 06:55:59;;;;;;;;;;;;;;;;;;5017460;28;19921;-82
2022/08/25 06:58:25;;;;;;;;;;;;;;;;;;5033711;28;19920;-82
2022/08/25 07:00:51;;;;;;;;;;;;;;;;;;5035383;28;19921;-82
2022/08/25 07:03:17;;;;;;;;;;;;;;;;;;5017744;28;19997;-82
2022/08/25 07:05:43;;;;;;;;;;;;;;;;;;5035681;28;20035;-83
2022/08/25 07:08:10;;;;;;;;;;;;;;;;;;5053715;28;19917;-82
2022/08/25 07:10:36;;;;;;;;;;;;;;;;;;5017913;28;19991;-83
2022/08/25 07:13:02;;;;;;;;;;;;;;;;;;5033688;28;20369;-82
2022/08/25 07:15:28;;;;;;;;;;;;;;;;;;5016949;28;20307;-82
2022/08/25 07:17:54;;;;;;;;;;;;;;;;;;5034788;28;20024;-82
2022/08/25 07:20:20;;;;;;;;;;;;;;;;;;5015782;28;20011;-82
2022/08/25 07:22:46;;;;;;;;;;;;;;;;;;5016676;28;20015;-82
2022/08/25 07:25:11;;;;;;;;;;;;;;;;;;5015584;28;19921;-82
2022/08/25 07:27:37;;;;;;;;;;;;;;;;;;5015694;28;19925;-83
2022/08/25 07:30:04;;;;;;;;;;;;;;;;;;5034230;28;19921;-83
2022/08/25 07:32:30;;;;;;;;;;;;;;;;;;5016473;28;19921;-82
2022/08/25 07:35:14;;;;;;;;;;;;;;;;;;5033883;28;19921;-82
2022/08/25 07:37:40;;;;;;;;;;;;;;;;;;5016808;28;20043;-83
2022/08/25 07:40:06;;;;;;;;;;;;;;;;;;5014768;28;20016;-84
2022/08/25 07:42:32;;;;;;;;;;;;;;;;;;5015976;28;19921;-83
2022/08/25 07:44:58;;;;;;;;;;;;;;;;;;5034003;28;20300;-84
2022/08/25 07:47:24;;;;;;;;;;;;;;;;;;5015835;28;19921;-83
2022/08/25 07:49:51;;;;;;;;;;;;;;;;;;5016379;28;19928;-83
2022/08/25 07:52:17;;;;;;;;;;;;;;;;;;5016565;28;19924;-86
2022/08/25 07:54:43;;;;;;;;;;;;;;;;;;5015052;28;19928;-84
2022/08/25 07:57:08;;;;;;;;;;;22.40;99.90;;;;;;5018305;28;20266;-85
2022/08/25 07:59:38;;;;;;;;;;;22.50;99.90;;;;;;5016201;28;20360;-82
2022/08/25 08:02:03;;;;;;;;;;;22.60;99.90;;;;;;5033145;28;20015;-82
2022/08/25 08:04:29;;;;;;;;;;;22.60;99.90;;;;;;5016217;28;19976;-83
2022/08/25 08:06:54;;;;;;;;;;;22.70;99.90;;;;;;5033769;28;20347;-82
2022/08/25 08:09:23;;;;;;;;;;;22.70;99.90;;;;;;5014577;28;19921;-82
2022/08/25 08:11:48;;;;;;;;;;;22.80;99.90;;;;;;5015268;28;20341;-82
2022/08/25 08:14:15;;;;;;;;;;;22.90;99.90;;;;;;5016249;28;20004;-82
2022/08/25 08:16:40;;;;;;;;;;;23.00;99.90;;;;;;5032831;28;19930;-82
2022/08/25 08:19:06;;;;;;;;;;;23.10;99.90;;;;;;5016051;28;19925;-83
2022/08/25 08:21:32;;;;;;;;;;;23.20;99.90;;;;;;5016200;28;19971;-80
2022/08/25 08:23:59;;;;;;;;;;;23.20;99.90;;;;;;5017502;28;19921;-82
2022/08/25 08:26:25;;;;;;;;;;;23.30;99.90;;;;;;5016197;28;20373;-82
2022/08/25 08:28:51;;;;;;;;;;;23.30;99.90;;;;;;5014741;28;19921;-82
2022/08/25 08:31:18;;;;;;;;;;;23.40;99.90;;;;;;5015357;28;19928;-83
2022/08/25 08:33:48;;;;;;;;;;;23.60;99.90;;;;;;5015965;28;19921;-83
2022/08/25 08:36:14;;;;;;;;;;;23.60;99.90;;;;;;5014753;28;19968;-83
2022/08/25 08:38:40;;;;;;;;;;;23.70;99.90;;;;;;5033171;28;19976;-82
2022/08/25 08:44:25;;;;;;;;;;;23.90;99.90;;;;;;5023611;28;19921;-82
2022/08/25 08:46:53;;;;;;;;;;;24.00;99.90;;;;;;5015490;28;19921;-82
2022/08/25 08:49:28;;;;;;;;;;;24.00;99.90;;;;;;5033064;28;19976;-82
2022/08/25 08:51:59;;;;;;;;;;;24.10;99.90;;;;;;5014556;28;19921;-83
2022/08/25 08:54:27;;;;;;;;;;;24.20;99.90;;;;;;5014786;28;20020;-81
2022/08/25 08:56:59;;;;;;;;;;;24.30;99.90;;;;;;5014246;28;19921;-82
2022/08/25 08:59:27;;;;;;;;;;;24.40;99.90;;;;;;5032849;28;20284;-82
2022/08/25 09:02:00;;;;;;;;;;;24.40;99.90;;;;;;5032704;28;20400;-82
2022/08/25 09:04:43;;;;;;;;;;;24.50;99.90;;;;;;5032082;28;20408;-84
2022/08/25 09:07:20;;;;;;;;;;;24.60;99.90;;;;;;5032900;28;20365;-82
2022/08/25 09:09:46;;;;;;;;;;;24.60;99.90;;;;;;5014590;28;19920;-83
2022/08/25 09:12:17;;;;;;;;;;;24.70;99.90;;;;;;5014050;28;19925;-83
2022/08/25 09:14:53;;;;;;;;;;;24.80;99.90;;;;;;5032736;28;20148;-82
2022/08/25 09:17:21;;;;;;;;;;;24.90;99.90;;;;;;5014975;28;19971;-84
2022/08/25 09:20:01;;;;;;;;;;;24.90;99.90;;;;;;5014687;28;20062;-83
2022/08/25 09:22:46;;;;;;;;;;;25.00;99.90;;;;;;5014924;28;19921;-81
2022/08/25 09:25:20;;;;;;;;;;;25.10;99.90;;;;;;5013797;28;19932;-83
2022/08/25 09:28:04;;;;;;;;;;;25.20;99.90;;;;;;5033996;28;20327;-83
2022/08/25 09:30:36;;;;;;;;;;;25.30;99.90;;;;;;5046238;28;19921;-82
2022/08/25 09:33:03;;;;;;;;;;;25.30;99.90;;;;;;5030985;28;19926;-82
2022/08/25 09:35:31;;;;;;;;;;;25.40;99.90;;;;;;5039995;28;19925;-83
2022/08/25 09:38:09;;;;;;;;;;;25.50;99.70;;;;;;5035888;28;19921;-85
2022/08/25 09:40:40;;;;;;;;;;;25.50;99.50;;;;;;5032213;28;20008;-82
2022/08/25 09:43:17;;;;;;;;;;;25.60;99.20;;;;;;5018383;28;19943;-83
2022/08/25 09:45:46;;;;;;;;;;;25.70;99.10;;;;;;5036597;28;19967;-82
2022/08/25 09:48:21;;;;;;;;;;;25.70;98.80;;;;;;5035689;28;19925;-82
2022/08/25 09:50:47;;;;;;;;;;;25.80;98.50;;;;;;5036749;28;19975;-83
2022/08/25 09:53:14;;;;;;;;;;;25.90;98.50;;;;;;5017782;28;19920;-83
2022/08/25 09:55:42;;;;;;;;;;;26.00;98.60;;;;;;5018362;28;20452;-84
2022/08/25 09:58:16;;;;;;;;;;;26.00;98.10;;;;;;5018773;28;19971;-83
2022/08/25 10:00:42;;;;;;;;;;;26.10;97.80;;;;;;5035883;28;19979;-84
2022/08/25 10:03:12;;;;;;;;;;;26.20;97.70;;;;;;5036685;28;19921;-83
2022/08/25 10:05:56;;;;;;;;;;;26.30;97.80;;;;;;5037575;28;19960;-84
2022/08/25 10:08:25;;;;;;;;;;;26.30;97.40;;;;;;5018975;28;19928;-83
2022/08/25 10:10:52;;;;;;;;;;;26.40;97.10;;;;;;5047633;28;19921;-83
2022/08/25 10:13:19;;;;;;;;;;;26.40;96.80;;;;;;5008594;28;19928;-82
2022/08/25 10:15:45;;;;;;;;;;;26.50;96.60;;;;;;5016310;28;20349;-82
2022/08/25 10:18:13;;;;;;;;;;;26.60;96.40;;;;;;5016041;28;20289;-83
2022/08/25 10:20:39;;;;;;;;;;;26.60;96.20;;;;;;5022758;28;19979;-83
2022/08/25 10:23:08;;;;;;;;;;;26.70;95.70;;;;;;5020729;28;19921;-82
2022/08/25 10:25:34;;;;;;;;;;;26.70;95.70;;;;;;4997601;28;20075;-82
2022/08/25 10:28:02;;;;;;;;;;;26.80;95.60;;;;;;4998385;28;20000;-85
2022/08/25 10:30:41;;;;;;;;;;;26.80;95.50;;;;;;5014619;28;19929;-82
2022/08/25 10:33:13;;;;;;;;;;;26.90;95.30;;;;;;5015694;28;19921;-82
2022/08/25 10:35:38;;;;;;;;;;;27.00;95.20;;;;;;5014906;28;20396;-83
2022/08/25 10:38:22;;;;;;;;;;;27.00;94.80;;;;;;5015659;28;19921;-82
2022/08/25 10:40:56;;;;;;;;;;;27.10;94.70;;;;;;4997748;28;19928;-83
2022/08/25 10:43:34;;;;;;;;;;;27.20;94.50;;;;;;5019016;28;19924;-82
2022/08/25 10:46:05;;;;;;;;;;;27.20;94.20;;;;;;5017543;28;19928;-82
2022/08/25 10:48:37;;;;;;;;;;;27.20;94.10;;;;;;5017350;28;19921;-82
2022/08/25 10:51:06;;;;;;;;;;;27.30;93.90;;;;;;5016948;28;19998;-83
2022/08/25 10:53:43;;;;;;;;;;;27.40;93.80;;;;;;5034305;28;20118;-83
2022/08/25 10:56:09;;;;;;;;;;;27.50;93.60;;;;;;5034799;28;19921;-83
2022/08/25 10:58:53;;;;;;;;;;;27.50;93.20;;;;;;5033849;28;19921;-83
2022/08/25 11:01:18;;;;;;;;;;;27.60;93.10;;;;;;5034894;28;19925;-82
2022/08/25 11:03:54;;;;;;;;;;;27.70;93.20;;;;;;5016708;28;19928;-81
2022/08/25 11:06:23;;;;;;;;;;;27.80;93.30;;;;;;5034858;28;20021;-82
2022/08/25 11:08:51;;;;;;;;;;;27.80;93.30;;;;;;5017194;28;19968;-82
2022/08/25 11:11:24;;;;;;;;;;;27.90;92.90;;;;;;5016042;28;19933;-82
2022/08/25 11:14:01;;;;;;;;;;;28.00;92.80;;;;;;5034832;28;19991;-83
2022/08/25 11:16:32;;;;;;;;;;;28.10;92.50;;;;;;5034760;28;19921;-82
2022/08/25 11:19:03;;;;;;;;;;;28.10;92.30;;;;;;5016259;28;19921;-82
2022/08/25 11:21:37;;;;;;;;;;;28.20;91.90;;;;;;5034473;28;19925;-83
2022/08/25 11:24:23;;;;;;;;;;;28.30;91.90;;;;;;4997418;28;19922;-83
2022/08/25 11:26:52;;;;;;;;;;;28.40;91.70;;;;;;4995131;28;19933;-83
2022/08/25 11:29:18;;;;;;;;;;;28.50;91.60;;;;;;4996994;28;19957;-83
2022/08/25 11:31:53;;;;;;;;;;;28.50;91.60;;;;;;5013775;28;19921;-83
2022/08/25 11:34:18;;;;;;;;;;;28.60;91.50;;;;;;5014573;28;20345;-83
2022/08/25 11:36:55;;;;;;;;;;;28.70;91.30;;;;;;5013325;28;19929;-83
2022/08/25 11:39:23;;;;;;;;;;;28.80;91.20;;;;;;5013478;28;19925;-81
2022/08/25 11:42:07;;;;;;;;;;;28.90;91.10;;;;;;5026236;28;19906;-82
2022/08/25 11:44:44;;;;;;;;;;;29.00;90.80;;;;;;5020959;28;19976;-82
2022/08/25 11:47:28;;;;;;;;;;;29.00;90.80;;;;;;4996781;28;19921;-82
2022/08/25 11:49:55;;;;;;;;;;;29.10;90.90;;;;;;5000252;28;19961;-83
2022/08/25 11:52:30;;;;;;;;;;;29.30;90.60;;;;;;5014143;28;19931;-83
2022/08/25 11:55:04;;;;;;;;;;;29.40;90.40;;;;;;4995181;28;19956;-83
2022/08/25 11:57:30;;;;;;;;;;;29.50;89.90;;;;;;5013774;28;19921;-84
2022/08/25 12:00:06;;;;;;;;;;;29.50;89.40;;;;;;5013495;28;20285;-82
2022/08/25 12:02:31;;;;;;;;;;;29.60;88.50;;;;;;4996368;28;20365;-81
2022/08/25 12:04:57;;;;;;;;;;;29.70;88.70;;;;;;5013328;28;19927;-82
2022/08/25 12:07:26;;;;;;;;;;;29.80;88.20;;;;;;4995645;28;19925;-82
2022/08/25 12:09:55;;;;;;;;;;;29.90;88.50;;;;;;4995767;28;19975;-82
2022/08/25 12:12:36;;;;;;;;;;;30.00;87.90;;;;;;5008943;28;19921;-81
2022/08/25 12:15:20;;;;;;;;;;;30.10;87.40;;;;;;5033062;28;19929;-83
2022/08/25 12:18:05;;;;;;;;;;;30.20;85.10;;;;;;5033740;28;19924;-82
2022/08/25 12:20:49;;;;;;;;;;;30.40;83.40;;;;;;5015419;28;20373;-82
2022/08/25 12:23:15;;;;;;;;;;;30.60;84.80;;;;;;5032383;28;19928;-81
2022/08/25 12:25:44;;;;;;;;;;;30.80;85.00;;;;;;5015856;28;20353;-82
2022/08/25 12:28:30;;;;;;;;;;;30.90;84.10;;;;;;5015024;28;19927;-81
2022/08/25 12:30:57;;;;;;;;;;;31.00;83.60;;;;;;5015381;28;20327;-82
2022/08/25 12:33:22;;;;;;;;;;;31.20;83.00;;;;;;5033052;28;19921;-81
2022/08/25 12:35:54;;;;;;;;;;;31.30;82.50;;;;;;5033087;28;19953;-82
2022/08/25 12:38:35;;;;;;;;;;;31.40;81.60;;;;;;5014928;28;19921;-82
2022/08/25 12:41:08;;;;;;;;;;;31.50;81.00;;;;;;5032863;28;19928;-82
2022/08/25 12:43:36;;;;;;;;;;;31.50;80.90;;;;;;5032020;28;19921;-81
2022/08/25 12:46:19;;;;;;;;;;;31.60;80.60;;;;;;5033947;28;19994;-83
2022/08/25 12:49:03;;;;;;;;;;;31.70;80.20;;;;;;5015682;28;20036;-83
2022/08/25 12:51:32;;;;;;;;;;;31.90;80.30;;;;;;5032777;28;20384;-82
2022/08/25 12:53:57;;;;;;;;;;;32.00;79.30;;;;;;5016335;28;19921;-81
2022/08/25 12:56:30;;;;;;;;;;;32.00;78.50;;;;;;5014814;28;20363;-80
2022/08/25 12:59:02;;;;;;;;;;;32.10;78.40;;;;;;5015532;28;19921;-81
2022/08/25 13:01:46;;;;;;;;;;;32.10;78.20;;;;;;5032704;28;19976;-81
2022/08/25 13:04:39;;;;;;;;;;;32.20;78.40;;;;;;5032124;28;20384;-82
2022/08/25 13:07:24;;;;;;;;;;;32.20;77.60;;;;;;5015656;28;19968;-83
2022/08/25 13:10:09;;;;;;;;;;;32.30;76.70;;;;;;5014588;28;19932;-82
2022/08/25 13:12:53;;;;;;;;;;;32.40;76.50;;;;;;5024780;28;19921;-83
2022/08/25 13:15:25;;;;;;;;;;;32.40;76.00;;;;;;5041614;28;19920;-83
2022/08/25 13:17:50;;;;;;;;;;;32.40;75.50;;;;;;5019262;28;19925;-82
2022/08/25 13:20:22;;;;;;;;;;;32.50;75.00;;;;;;5019139;28;19928;-81
2022/08/25 13:22:49;;;;;;;;;;;32.50;75.10;;;;;;5036999;28;19925;-82
2022/08/25 13:25:16;;;;;;;;;;;32.60;74.80;;;;;;5034954;28;19951;-82
2022/08/25 13:27:46;;;;;;;;;;;32.60;74.00;;;;;;5019032;28;19979;-82
2022/08/25 13:30:21;;;;;;;;;;;32.70;73.20;;;;;;5036381;28;19924;-81
2022/08/25 13:32:46;;;;;;;;;;;32.70;74.30;;;;;;5041235;28;19921;-81
2022/08/25 13:35:14;;;;;;;;;;;32.80;74.40;;;;;;5036364;28;19921;-82
2022/08/25 13:37:40;;;;;;;;;;;32.90;74.40;;;;;;5018917;28;19924;-82
2022/08/25 13:40:15;;;;;;;;;;;32.90;73.70;;;;;;5034984;28;19964;-81
2022/08/25 13:42:45;;;;;;;;;;;33.00;73.10;;;;;;5036297;28;19921;-82
2022/08/25 13:45:24;;;;;;;;;;;33.10;73.20;;;;;;5018551;28;19921;-81
2022/08/25 13:47:50;;;;;;;;;;;33.20;73.10;;;;;;5036575;28;19928;-81
2022/08/25 13:50:28;;;;;;;;;;;33.20;72.80;;;;;;5018502;28;19921;-82
2022/08/25 13:52:59;;;;;;;;;;;33.30;72.00;;;;;;5038764;28;19928;-81
2022/08/25 13:55:28;;;;;;;;;;;33.30;71.90;;;;;;5043100;28;20015;-81
2022/08/25 13:57:55;;;;;;;;;;;33.30;72.10;;;;;;5051107;28;19920;-81
2022/08/25 14:00:32;;;;;;;;;;;33.30;71.50;;;;;;5051067;28;19956;-82
2022/08/25 14:02:57;;;;;;;;;;;;;;;;;;5044399;28;20296;-82
2022/08/25 14:05:23;;;;;;;;;;;;;;;;;;5037563;28;19928;-84
2022/08/25 14:07:50;;;;;;;;;;;;;;;;;;5019217;28;19963;-83
2022/08/25 14:10:16;;;;;;;;;;;;;;;;;;5017575;28;19921;-83
2022/08/25 14:12:43;;;;;;;;;;;;;;;;;;5035516;28;19925;-82
2022/08/25 14:15:09;;;;;;;;;;;;;;;;;;5035495;28;19921;-83
2022/08/25 14:17:35;;;;;;;;;;;;;;;;;;5035724;28;20377;-83
2022/08/25 14:20:01;;;;;;;;;;;;;;;;;;5017973;28;19932;-83
2022/08/25 14:22:27;;;;;;;;;;;;;;;;;;5035040;28;19993;-83
2022/08/25 14:24:53;;;;;;;;;;;;;;;;;;5034983;28;19928;-82
2022/08/25 14:27:19;;;;;;;;;;;;;;;;;;5034635;28;19921;-82
2022/08/25 14:29:44;;;;;;;;;;;;;;;;;;5017047;28;19928;-82
2022/08/25 14:32:10;;;;;;;;;;;;;;;;;;5018418;28;20331;-82
2022/08/25 14:34:36;;;;;;;;;;;;;;;;;;5017208;28;20423;-82
2022/08/25 14:37:02;;;;;;;;;;;;;;;;;;5017694;28;19955;-82
2022/08/25 14:39:28;;;;;;;;;;;;;;;;;;5017272;28;19925;-82
2022/08/25 14:41:54;;;;;;;;;;;;;;;;;;5016106;28;20019;-83
2022/08/25 14:44:20;;;;;;;;;;;;;;;;;;5053100;28;19921;-82
2022/08/25 14:46:46;;;;;;;;;;;;;;;;;;5021614;28;19921;-83
2022/08/25 14:49:12;;;;;;;;;;;;;;;;;;5034645;28;19925;-83
2022/08/25 14:51:38;;;;;;;;;;;;;;;;;;5017522;28;19984;-82
2022/08/25 14:54:13;;;;;;;;;;;;;;;;;;5017172;28;19921;-83
2022/08/25 14:56:39;;;;;;;;;;;;;;;;;;5016308;28;19921;-83
2022/08/25 14:59:05;;;;;;;;;;;;;;;;;;5017640;28;20398;-82
2022/08/25 15:01:31;;;;;;;;;;;;;;;;;;5017092;28;20402;-82
2022/08/25 15:03:57;;;;;;;;;;;;;;;;;;5016627;28;19928;-83
2022/08/25 15:06:23;;;;;;;;;;;;;;;;;;5034677;28;20007;-83
2022/08/25 15:09:09;;;;;;;;;;;;;;;;;;5017331;28;19953;-83
2022/08/25 15:11:35;;;;;;;;;;;;;;;;;;5015588;28;20068;-82
2022/08/25 15:14:02;;;;;;;;;;;;;;;;;;5039058;28;19921;-83
2022/08/25 15:16:28;;;;;;;;;;;;;;;;;;5017147;28;19944;-83
2022/08/25 15:18:54;;;;;;;;;;;;;;;;;;5034063;28;20369;-83
2022/08/25 15:21:20;;;;;;;;;;;;;;;;;;5034571;28;19924;-83
2022/08/25 15:23:46;;;;;;;;;;;;;;;;;;5033527;28;19924;-82